createdAt,value
2022-12-22T00:00:40.093Z,99549.56
2022-12-22T00:03:31.745Z,99548.91
2022-12-22T00:06:17.245Z,99549.91
2022-12-22T00:09:05.727Z,99549.91
2022-12-22T00:11:52.111Z,99534.78
2022-12-22T00:14:38.664Z,99541.16
2022-12-22T00:17:32.422Z,99544.03
2022-12-22T00:20:18.820Z,99537.13
2022-12-22T00:23:04.453Z,99529.38
2022-12-22T00:25:49.563Z,99522.63
2022-12-22T00:28:35.464Z,99528.22
2022-12-22T00:31:22.622Z,99530.25
2022-12-22T00:34:07.864Z,99535.13
2022-12-22T00:36:53.735Z,99529.06
2022-12-22T00:39:38.807Z,99533.78
2022-12-22T00:42:24.441Z,99528.53
2022-12-22T00:45:10.391Z,99517.06
2022-12-22T00:47:57.475Z,99507.63
2022-12-22T00:50:49.798Z,99512.69
2022-12-22T00:53:36.242Z,99512.34
2022-12-22T00:56:22.508Z,99518.94
2022-12-22T00:59:09.341Z,99522.66
2022-12-22T01:01:54.706Z,99520.09
2022-12-22T01:04:41.825Z,99509.66
2022-12-22T01:07:29.585Z,99508.47
2022-12-22T01:10:15.299Z,99508.34
2022-12-22T01:13:01.534Z,99507.16
2022-12-22T01:15:48.255Z,99518.59
2022-12-22T01:18:34.083Z,99517.75
2022-12-22T01:21:22.529Z,99511.34
2022-12-22T01:24:07.819Z,99517.59
2022-12-22T01:26:53.088Z,99516.41
2022-12-22T01:29:38.453Z,99506.44
2022-12-22T01:32:24.285Z,99503.75
2022-12-22T01:35:09.519Z,99499.41
2022-12-22T01:37:56.291Z,99494.00
2022-12-22T01:40:43.712Z,99483.25
2022-12-22T01:43:39.227Z,99475.31
2022-12-22T01:46:39.297Z,99464.38
2022-12-22T01:49:27.376Z,99468.59
2022-12-22T01:52:13.125Z,99466.91
2022-12-22T01:55:01.009Z,99466.91
2022-12-22T01:57:47.318Z,99472.28
2022-12-22T02:00:33.231Z,99471.81
2022-12-22T02:03:19.501Z,99469.13
2022-12-22T02:06:17.522Z,99478.03
2022-12-22T02:09:16.707Z,99473.00
2022-12-22T02:12:12.254Z,99461.69
2022-12-22T02:15:04.563Z,99465.75
2022-12-22T02:17:57.498Z,99466.25
2022-12-22T02:20:55.305Z,99460.03
2022-12-22T02:23:59.946Z,99460.69
2022-12-22T02:26:48.926Z,99459.66
2022-12-22T02:29:38.216Z,99457.69
2022-12-22T02:32:24.781Z,99454.97
2022-12-22T02:35:10.067Z,99444.03
2022-12-22T02:38:08.406Z,99446.53
2022-12-22T02:41:04.274Z,99447.56
2022-12-22T02:44:07.658Z,99452.63
2022-12-22T02:46:59.442Z,99444.69
2022-12-22T02:49:50.514Z,99438.47
2022-12-22T02:52:42.790Z,99437.78
2022-12-22T02:55:29.237Z,99438.47
2022-12-22T02:58:18.073Z,99432.91
2022-12-22T03:01:06.326Z,99435.94
2022-12-22T03:03:52.131Z,99429.06
2022-12-22T03:06:37.756Z,99432.94
2022-12-22T03:09:22.928Z,99429.72
2022-12-22T03:12:08.861Z,99431.09
2022-12-22T03:14:54.021Z,99435.09
2022-12-22T03:17:40.809Z,99429.91
2022-12-22T03:20:27.703Z,99423.19
2022-12-22T03:23:12.952Z,99411.91
2022-12-22T03:25:53.978Z,99420.84
2022-12-22T03:28:23.532Z,99422.50
2022-12-22T03:30:57.058Z,99405.16
2022-12-22T03:33:26.771Z,99414.59
2022-12-22T03:35:54.727Z,99407.53
2022-12-22T03:38:22.776Z,99421.16
2022-12-22T03:40:50.811Z,99413.41
2022-12-22T03:43:37.030Z,99419.31
2022-12-22T03:46:22.963Z,99427.72
2022-12-22T03:49:06.533Z,99424.34
2022-12-22T03:51:35.012Z,99426.69
2022-12-22T03:54:03.033Z,99422.66
2022-12-22T03:56:31.197Z,99412.56
2022-12-22T03:58:59.148Z,99416.75
2022-12-22T04:01:27.399Z,99405.34
2022-12-22T04:03:56.865Z,99413.06
2022-12-22T04:06:25.001Z,99411.88
2022-12-22T04:08:52.999Z,99409.69
2022-12-22T04:11:38.521Z,99401.59
2022-12-22T04:14:06.630Z,99398.75
2022-12-22T04:16:34.748Z,99399.75
2022-12-22T04:19:04.310Z,99386.94
2022-12-22T04:21:32.307Z,99382.41
2022-12-22T04:24:00.285Z,99380.72
2022-12-22T04:26:28.769Z,99379.91
2022-12-22T04:28:57.023Z,99368.94
2022-12-22T04:31:25.386Z,99366.91
2022-12-22T04:33:53.406Z,99372.84
2022-12-22T04:38:50.957Z,99367.97
2022-12-22T04:41:18.907Z,99366.13
2022-12-22T04:43:46.796Z,99365.44
2022-12-22T04:46:14.915Z,99359.22
2022-12-22T04:48:42.945Z,99366.28
2022-12-22T04:51:11.013Z,99367.47
2022-12-22T04:53:40.378Z,99365.94
2022-12-22T04:56:09.505Z,99368.81
2022-12-22T04:58:38.023Z,99360.25
2022-12-22T05:01:13.898Z,99359.25
2022-12-22T05:03:42.265Z,99365.63
2022-12-22T05:06:11.005Z,99358.91
2022-12-22T05:08:40.484Z,99359.22
2022-12-22T05:11:08.855Z,99358.19
2022-12-22T05:13:36.908Z,99353.66
2022-12-22T05:16:06.721Z,99346.75
2022-12-22T05:18:35.185Z,99342.22
2022-12-22T05:21:04.795Z,99344.56
2022-12-22T05:23:32.823Z,99343.53
2022-12-22T05:26:02.340Z,99344.88
2022-12-22T05:28:32.160Z,99350.09
2022-12-22T05:31:06.050Z,99352.63
2022-12-22T05:33:34.171Z,99346.88
2022-12-22T05:36:03.480Z,99355.13
2022-12-22T05:38:31.543Z,99359.34
2022-12-22T05:41:03.961Z,99349.25
2022-12-22T05:43:33.957Z,99350.28
2022-12-22T05:46:03.713Z,99356.00
2022-12-22T05:48:37.423Z,99354.31
2022-12-22T05:51:06.929Z,99354.63
2022-12-22T05:53:34.889Z,99350.28
2022-12-22T05:56:02.984Z,99348.78
2022-12-22T05:58:30.977Z,99348.47
2022-12-22T06:01:01.811Z,99343.06
2022-12-22T06:03:30.766Z,99325.91
2022-12-22T06:05:59.759Z,99340.72
2022-12-22T06:08:28.378Z,99317.19
2022-12-22T06:10:57.610Z,99344.41
2022-12-22T06:13:26.800Z,99341.25
2022-12-22T06:15:54.943Z,99342.56
2022-12-22T06:18:24.337Z,99332.84
2022-12-22T06:20:53.524Z,99333.19
2022-12-22T06:23:21.662Z,99340.06
2022-12-22T06:25:55.855Z,99340.41
2022-12-22T06:28:24.447Z,99343.94
2022-12-22T06:30:52.686Z,99337.38
2022-12-22T06:33:20.772Z,99335.66
2022-12-22T06:35:57.639Z,99331.97
2022-12-22T06:38:27.472Z,99324.06
2022-12-22T06:40:55.476Z,99333.63
2022-12-22T06:43:22.425Z,99326.22
2022-12-22T06:45:50.482Z,99333.31
2022-12-22T06:48:18.467Z,99331.47
2022-12-22T06:50:46.544Z,99340.06
2022-12-22T06:53:15.953Z,99337.03
2022-12-22T06:55:44.069Z,99334.34
2022-12-22T06:58:12.042Z,99336.03
2022-12-22T07:00:40.070Z,99341.09
2022-12-22T07:03:08.270Z,99338.22
2022-12-22T07:05:36.455Z,99344.78
2022-12-22T07:08:08.933Z,99337.56
2022-12-22T07:10:56.310Z,99345.97
2022-12-22T07:13:25.326Z,99353.69
2022-12-22T07:15:59.921Z,99346.63
2022-12-22T07:18:29.540Z,99353.19
2022-12-22T07:20:57.502Z,99360.75
2022-12-22T07:23:25.698Z,99359.22
2022-12-22T07:25:55.324Z,99357.56
2022-12-22T07:28:23.546Z,99353.19
2022-12-22T07:30:52.074Z,99353.19
2022-12-22T07:33:20.432Z,99351.34
2022-12-22T07:35:48.432Z,99346.09
2022-12-22T07:38:16.498Z,99344.78
2022-12-22T07:40:49.359Z,99339.22
2022-12-22T07:43:20.342Z,99338.72
2022-12-22T07:45:48.545Z,99332.84
2022-12-22T07:48:33.796Z,99328.13
2022-12-22T07:51:05.290Z,99320.22
2022-12-22T07:53:33.873Z,99322.91
2022-12-22T07:56:04.672Z,99321.72
2022-12-22T07:58:34.546Z,99324.09
2022-12-22T08:01:02.825Z,99315.00
2022-12-22T08:03:30.818Z,99320.91
2022-12-22T08:05:58.758Z,99319.88
2022-12-22T08:08:26.639Z,99313.69
2022-12-22T08:10:54.637Z,99322.09
2022-12-22T08:13:22.735Z,99320.06
2022-12-22T08:15:52.184Z,99324.06
2022-12-22T08:18:20.907Z,99325.56
2022-12-22T08:20:50.883Z,99327.78
2022-12-22T08:23:20.235Z,99327.09
2022-12-22T08:25:51.997Z,99332.13
2022-12-22T08:28:20.328Z,99324.91
2022-12-22T08:30:48.716Z,99330.78
2022-12-22T08:33:18.186Z,99330.59
2022-12-22T08:35:46.181Z,99318.84
2022-12-22T08:38:15.899Z,99319.50
2022-12-22T08:40:45.945Z,99305.53
2022-12-22T08:43:13.954Z,99326.06
2022-12-22T08:45:43.587Z,99316.59
2022-12-22T08:48:11.894Z,99317.44
2022-12-22T08:50:41.277Z,99319.28
2022-12-22T08:53:23.672Z,99295.47
2022-12-22T08:55:58.619Z,99317.81
2022-12-22T08:58:26.614Z,99326.72
2022-12-22T09:00:54.735Z,99318.66
2022-12-22T09:03:22.815Z,99322.34
2022-12-22T09:05:52.197Z,99319.66
2022-12-22T09:08:20.192Z,99320.69
2022-12-22T09:10:48.133Z,99318.00
2022-12-22T09:13:16.164Z,99322.03
2022-12-22T09:15:44.138Z,99319.84
2022-12-22T09:18:12.059Z,99320.50
2022-12-22T09:20:39.977Z,99321.03
2022-12-22T09:23:09.562Z,99321.03
2022-12-22T09:25:37.586Z,99314.66
2022-12-22T09:28:08.467Z,99298.66
2022-12-22T09:30:36.514Z,99323.06
2022-12-22T09:33:04.477Z,99306.56
2022-12-22T09:35:32.449Z,99302.03
2022-12-22T09:38:00.472Z,99300.00
2022-12-22T09:40:29.738Z,99301.66
2022-12-22T09:42:59.095Z,99288.06
2022-12-22T09:45:27.440Z,99287.88
2022-12-22T09:47:56.298Z,99294.28
2022-12-22T09:50:26.964Z,99291.41
2022-12-22T09:52:58.586Z,99296.97
2022-12-22T09:55:41.054Z,99293.59
2022-12-22T09:58:22.193Z,99295.28
2022-12-22T10:01:00.637Z,99294.44
2022-12-22T10:03:35.227Z,99292.94
2022-12-22T10:06:10.948Z,99297.47
2022-12-22T10:08:41.213Z,99298.31
2022-12-22T10:11:15.255Z,99302.50
2022-12-22T10:13:43.595Z,99273.63
2022-12-22T10:16:23.626Z,99296.13
2022-12-22T10:19:00.606Z,99283.66
2022-12-22T10:21:30.260Z,99286.69
2022-12-22T10:23:58.253Z,99292.59
2022-12-22T10:26:31.997Z,99293.25
2022-12-22T10:29:03.700Z,99286.22
2022-12-22T10:31:34.152Z,99289.72
2022-12-22T10:34:12.752Z,99289.56
2022-12-22T10:36:42.292Z,99289.22
2022-12-22T10:39:12.136Z,99293.56
2022-12-22T10:41:45.805Z,99286.00
2022-12-22T10:44:23.726Z,99290.38
2022-12-22T10:46:53.411Z,99278.91
2022-12-22T10:49:23.820Z,99282.31
2022-12-22T10:51:54.926Z,99263.47
2022-12-22T10:54:31.089Z,99282.97
2022-12-22T10:57:30.873Z,99279.75
2022-12-22T11:00:00.323Z,99275.22
2022-12-22T11:02:33.178Z,99274.88
2022-12-22T11:05:07.050Z,99269.31
2022-12-22T11:07:37.535Z,99274.03
2022-12-22T11:10:18.693Z,99266.81
2022-12-22T11:13:07.613Z,99269.16
2022-12-22T11:15:44.855Z,99263.75
2022-12-22T11:18:31.502Z,99255.84
2022-12-22T11:21:04.579Z,99262.25
2022-12-22T11:23:38.804Z,99237.06
2022-12-22T11:26:16.663Z,99259.72
2022-12-22T11:28:58.894Z,99258.06
2022-12-22T11:31:42.715Z,99254.53
2022-12-22T11:34:24.238Z,99266.50
2022-12-22T11:37:03.452Z,99261.25
2022-12-22T11:39:41.627Z,99264.63
2022-12-22T11:42:27.856Z,99259.25
2022-12-22T11:45:10.843Z,99266.66
2022-12-22T11:47:48.747Z,99264.13
2022-12-22T11:50:59.856Z,99264.97
2022-12-22T11:53:52.323Z,99258.25
2022-12-22T11:56:24.503Z,99257.41
2022-12-22T11:59:10.277Z,99250.00
2022-12-22T12:01:55.595Z,99250.16
2022-12-22T12:05:02.487Z,99245.13
2022-12-22T12:07:33.349Z,99243.47
2022-12-22T12:10:15.064Z,99244.63
2022-12-22T12:12:53.980Z,99246.63
2022-12-22T12:15:32.473Z,99240.91
2022-12-22T12:18:35.385Z,99247.13
2022-12-22T12:21:21.309Z,99242.09
2022-12-22T12:24:06.479Z,99237.91
2022-12-22T12:26:45.373Z,99245.31
2022-12-22T12:29:18.171Z,99239.94
2022-12-22T12:31:49.971Z,99244.31
2022-12-22T12:34:21.396Z,99231.50
2022-12-22T12:36:54.067Z,99233.16
2022-12-22T12:39:29.757Z,99233.00
2022-12-22T12:42:06.104Z,99234.69
2022-12-22T12:44:37.037Z,99236.91
2022-12-22T12:47:23.267Z,99237.91
2022-12-22T12:49:58.256Z,99228.47
2022-12-22T12:53:05.961Z,99231.13
2022-12-22T12:55:35.986Z,99236.69
2022-12-22T12:58:06.079Z,99232.78
2022-12-22T13:00:52.588Z,99234.50
2022-12-22T13:06:53.412Z,99231.47
2022-12-22T13:09:49.065Z,99241.41
2022-12-22T13:12:35.798Z,99240.56
2022-12-22T13:15:03.790Z,99247.13
2022-12-22T13:17:40.799Z,99239.06
2022-12-22T13:20:15.593Z,99239.06
2022-12-22T13:22:45.691Z,99231.31
2022-12-22T13:25:17.198Z,99228.09
2022-12-22T13:27:45.334Z,99234.88
2022-12-22T13:30:16.637Z,99233.00
2022-12-22T13:32:48.311Z,99233.00
2022-12-22T13:35:44.635Z,99234.03
2022-12-22T13:38:27.631Z,99224.44
2022-12-22T13:40:55.992Z,99225.63
2022-12-22T13:43:24.130Z,99226.78
2022-12-22T13:45:54.266Z,99227.63
2022-12-22T13:48:25.532Z,99207.47
2022-12-22T13:50:55.254Z,99221.75
2022-12-22T13:56:24.921Z,99228.81
2022-12-22T13:58:56.658Z,99223.44
2022-12-22T14:01:25.108Z,99230.47
2022-12-22T14:04:00.818Z,99222.25
2022-12-22T14:06:31.937Z,99214.31
2022-12-22T14:09:16.263Z,99215.81
2022-12-22T14:11:51.510Z,99210.44
2022-12-22T14:14:23.895Z,99212.78
2022-12-22T14:16:54.643Z,99219.53
2022-12-22T14:19:24.931Z,99218.34
2022-12-22T14:22:03.318Z,99217.13
2022-12-22T14:24:42.079Z,99212.59
2022-12-22T14:27:19.629Z,99217.97
2022-12-22T14:29:47.859Z,99212.94
2022-12-22T14:32:35.626Z,99216.28
2022-12-22T14:35:03.993Z,99213.94
2022-12-22T14:37:33.105Z,99218.34
2022-12-22T14:40:02.857Z,99219.84
2022-12-22T14:42:32.334Z,99220.50
2022-12-22T14:45:00.729Z,99219.50
2022-12-22T14:47:28.778Z,99217.25
2022-12-22T14:49:59.628Z,99211.53
2022-12-22T14:52:35.424Z,99209.50
2022-12-22T14:55:07.180Z,99204.28
2022-12-22T14:57:39.253Z,99204.94
2022-12-22T15:00:27.674Z,99207.47
2022-12-22T15:02:57.849Z,99207.47
2022-12-22T15:05:29.270Z,99201.72
2022-12-22T15:08:08.514Z,99202.41
2022-12-22T15:10:43.273Z,99203.22
2022-12-22T15:13:24.664Z,99189.81
2022-12-22T15:15:53.497Z,99200.72
2022-12-22T15:18:26.462Z,99204.25
2022-12-22T15:20:54.643Z,99203.41
2022-12-22T15:23:22.566Z,99206.94
2022-12-22T15:25:52.113Z,99200.53
2022-12-22T15:28:20.178Z,99199.72
2022-12-22T15:30:48.143Z,99194.31
2022-12-22T15:33:18.914Z,99196.81
2022-12-22T15:35:47.832Z,99196.81
2022-12-22T15:38:18.012Z,99206.41
2022-12-22T15:40:46.221Z,99199.31
2022-12-22T15:43:55.770Z,99200.19
2022-12-22T15:46:06.588Z,99167.47
2022-12-22T15:48:36.488Z,99198.53
2022-12-22T15:51:06.767Z,99193.94
2022-12-22T15:53:35.830Z,99194.13
2022-12-22T15:56:04.059Z,99189.75
2022-12-22T15:58:37.388Z,99186.91
2022-12-22T16:01:05.474Z,99189.59
2022-12-22T16:03:33.629Z,99186.91
2022-12-22T16:06:01.806Z,99187.75
2022-12-22T16:08:34.287Z,99186.91
2022-12-22T16:11:02.310Z,99182.69
2022-12-22T16:13:30.650Z,99181.84
2022-12-22T16:16:00.272Z,99171.63
2022-12-22T16:18:28.316Z,99170.25
2022-12-22T16:20:58.931Z,99184.34
2022-12-22T16:23:28.344Z,99182.34
2022-12-22T16:26:01.937Z,99179.81
2022-12-22T16:28:30.901Z,99186.91
2022-12-22T16:31:00.984Z,99172.59
2022-12-22T16:33:29.185Z,99173.44
2022-12-22T16:35:57.267Z,99164.31
2022-12-22T16:38:25.233Z,99158.75
2022-12-22T16:40:54.602Z,99164.66
2022-12-22T16:46:15.580Z,99158.75
2022-12-22T16:48:46.229Z,99160.78
2022-12-22T16:51:20.566Z,99159.75
2022-12-22T16:53:48.679Z,99156.22
2022-12-22T16:56:20.648Z,99157.91
2022-12-22T16:58:48.922Z,99146.63
2022-12-22T17:01:36.060Z,99148.97
2022-12-22T17:04:07.306Z,99148.13
2022-12-22T17:06:36.280Z,99149.47
2022-12-22T17:09:05.578Z,99146.22
2022-12-22T17:11:34.514Z,99148.38
2022-12-22T17:14:07.029Z,99145.31
2022-12-22T17:16:36.486Z,99143.66
2022-12-22T17:19:04.631Z,99143.81
2022-12-22T17:21:33.500Z,99136.59
2022-12-22T17:24:04.230Z,99131.00
2022-12-22T17:26:34.599Z,99138.06
2022-12-22T17:29:03.155Z,99137.06
2022-12-22T17:31:31.297Z,99133.03
2022-12-22T17:34:00.703Z,99134.59
2022-12-22T17:36:34.781Z,99139.81
2022-12-22T17:39:03.856Z,99134.94
2022-12-22T17:41:32.191Z,99133.28
2022-12-22T17:44:01.096Z,99133.28
2022-12-22T17:46:29.223Z,99127.06
2022-12-22T17:48:57.341Z,99131.59
2022-12-22T17:51:30.169Z,99131.81
2022-12-22T17:53:59.379Z,99125.75
2022-12-22T17:56:28.446Z,99130.47
2022-12-22T17:58:56.469Z,99134.84
2022-12-22T18:01:27.787Z,99128.81
2022-12-22T18:03:57.030Z,99138.75
2022-12-22T18:06:30.703Z,99137.72
2022-12-22T18:08:59.071Z,99133.16
2022-12-22T18:11:27.580Z,99129.09
2022-12-22T18:13:57.274Z,99121.03
2022-12-22T18:16:25.638Z,99121.13
2022-12-22T18:18:53.878Z,99119.22
2022-12-22T18:21:23.873Z,99122.41
2022-12-22T18:23:53.409Z,99101.91
2022-12-22T18:26:24.186Z,99124.19
2022-12-22T18:28:52.641Z,99124.63
2022-12-22T18:31:21.230Z,99117.03
2022-12-22T18:33:49.472Z,99116.69
2022-12-22T18:36:19.848Z,99088.50
2022-12-22T18:38:48.781Z,99104.22
2022-12-22T18:41:22.308Z,99106.75
2022-12-22T18:43:51.252Z,99105.06
2022-12-22T18:46:20.219Z,99104.41
2022-12-22T18:48:48.307Z,99108.47
2022-12-22T18:51:22.110Z,99109.16
2022-12-22T18:53:51.057Z,99100.78
2022-12-22T18:56:20.682Z,99104.13
2022-12-22T18:58:48.893Z,99104.28
2022-12-22T19:01:23.187Z,99094.34
2022-12-22T19:03:53.418Z,99099.72
2022-12-22T19:06:23.331Z,99104.28
2022-12-22T19:08:52.301Z,99100.56
2022-12-22T19:11:26.761Z,99104.75
2022-12-22T19:13:54.888Z,99106.44
2022-12-22T19:16:27.746Z,99101.00
2022-12-22T19:18:57.141Z,99088.81
2022-12-22T19:21:25.233Z,99096.53
2022-12-22T19:23:53.342Z,99099.88
2022-12-22T19:26:24.580Z,99094.19
2022-12-22T19:28:55.314Z,99098.88
2022-12-22T19:31:25.837Z,99083.97
2022-12-22T19:33:54.452Z,99100.53
2022-12-22T19:36:25.772Z,99088.72
2022-12-22T19:39:02.631Z,99093.28
2022-12-22T19:41:39.497Z,99087.53
2022-12-22T19:44:17.149Z,99086.03
2022-12-22T19:46:45.719Z,99084.69
2022-12-22T19:49:16.586Z,99086.69
2022-12-22T19:51:44.679Z,99083.97
2022-12-22T19:54:12.730Z,99072.72
2022-12-22T19:56:43.402Z,99079.16
2022-12-22T19:59:27.068Z,99084.25
2022-12-22T20:01:58.541Z,99075.31
2022-12-22T20:04:26.925Z,99084.06
2022-12-22T20:06:55.010Z,99089.66
2022-12-22T20:09:22.879Z,99086.31
2022-12-22T20:11:52.366Z,99079.72
2022-12-22T20:14:20.864Z,99063.69
2022-12-22T20:16:48.925Z,99075.59
2022-12-22T20:19:17.552Z,99066.94
2022-12-22T20:21:45.898Z,99059.06
2022-12-22T20:24:21.831Z,99064.53
2022-12-22T20:26:54.161Z,99057.13
2022-12-22T20:29:25.876Z,99066.75
2022-12-22T20:31:54.132Z,99007.25
2022-12-22T20:34:22.421Z,99054.59
2022-12-22T20:36:50.462Z,99061.34
2022-12-22T20:39:20.475Z,99053.34
2022-12-22T20:41:52.930Z,99054.81
2022-12-22T20:46:52.675Z,99057.78
2022-12-22T20:49:20.681Z,99054.09
2022-12-22T20:51:48.804Z,99049.53
2022-12-22T20:54:17.054Z,99049.97
2022-12-22T20:56:45.933Z,99054.94
2022-12-22T20:59:16.627Z,99049.69
2022-12-22T21:01:46.701Z,99055.47
2022-12-22T21:04:15.199Z,99044.03
2022-12-22T21:06:47.629Z,99051.97
2022-12-22T21:09:16.207Z,99044.41
2022-12-22T21:11:44.479Z,99043.13
2022-12-22T21:14:13.756Z,99050.84
2022-12-22T21:16:42.536Z,99040.69
2022-12-22T21:19:18.219Z,99038.91
2022-12-22T21:21:46.612Z,99033.16
2022-12-22T21:24:14.591Z,99025.91
2022-12-22T21:26:48.251Z,99025.31
2022-12-22T21:29:21.427Z,99021.25
2022-12-22T21:31:49.504Z,99025.59
2022-12-22T21:34:18.907Z,99028.28
2022-12-22T21:36:49.831Z,99027.19
2022-12-22T21:39:26.390Z,99032.78
2022-12-22T21:42:04.567Z,99025.91
2022-12-22T21:44:34.745Z,99026.06
2022-12-22T21:47:03.520Z,99025.69
2022-12-22T21:49:34.387Z,99019.94
2022-12-22T21:52:02.355Z,99015.38
2022-12-22T21:54:30.275Z,99004.31
2022-12-22T21:56:58.347Z,99015.59
2022-12-22T21:59:26.525Z,99013.69
2022-12-22T22:01:56.241Z,99013.91
2022-12-22T22:04:24.543Z,99010.72
2022-12-22T22:06:54.153Z,99011.94
2022-12-22T22:09:22.089Z,99004.88
2022-12-22T22:12:07.417Z,99002.56
2022-12-22T22:14:35.429Z,98994.19
2022-12-22T22:17:03.371Z,99000.44
2022-12-22T22:19:31.310Z,98989.66
2022-12-22T22:22:00.621Z,98991.78
2022-12-22T22:24:28.923Z,98980.22
2022-12-22T22:26:56.915Z,98984.22
2022-12-22T22:29:24.952Z,98984.03
2022-12-22T22:31:52.893Z,98984.50
2022-12-22T22:34:20.924Z,98984.13
2022-12-22T22:36:48.816Z,98987.09
2022-12-22T22:39:18.254Z,98979.25
2022-12-22T22:41:46.270Z,98985.94
2022-12-22T22:44:14.669Z,98978.78
2022-12-22T22:46:42.772Z,98972.59
2022-12-22T22:49:10.810Z,98973.91
2022-12-22T22:51:38.785Z,98969.59
2022-12-22T22:54:06.847Z,98971.94
2022-12-22T22:56:38.856Z,98972.97
2022-12-22T22:59:07.060Z,98959.56
2022-12-22T23:01:35.075Z,98963.72
2022-12-22T23:04:03.300Z,98956.00
2022-12-22T23:06:31.441Z,98955.84
2022-12-22T23:08:59.660Z,98954.53
2022-12-22T23:11:27.671Z,98955.31
2022-12-22T23:13:57.230Z,98951.94
2022-12-22T23:16:25.280Z,98937.34
2022-12-22T23:18:54.354Z,98948.63
2022-12-22T23:21:24.029Z,98937.63
2022-12-22T23:23:56.384Z,98934.28
2022-12-22T23:26:25.313Z,98939.88
2022-12-22T23:28:57.723Z,98942.00
2022-12-22T23:31:31.015Z,98929.72
2022-12-22T23:33:59.275Z,98931.31
2022-12-22T23:36:27.473Z,98932.28
2022-12-22T23:38:55.419Z,98922.44
2022-12-22T23:41:23.492Z,98927.56
2022-12-22T23:43:51.978Z,98922.53
2022-12-22T23:46:20.150Z,98918.56
2022-12-22T23:48:53.441Z,98916.63
2022-12-22T23:51:23.077Z,98910.13
2022-12-22T23:53:51.052Z,98911.81
2022-12-22T23:56:19.115Z,98881.28
2022-12-22T23:58:51.099Z,98878.56
